Time;durP1;ratioP1;P1;durP2;ratioP2;P2;SDS_P1;SDS_P2;PMS_P1;PMS_P2;Temp;Humidity;BMP_temperature;BMP_pressure;BME280_temperature;BME280_humidity;BME280_pressure;Samples;Min_cycle;Max_cycle;Signal;HPM_P1;HPM_P2
2023/04/26 00:01:05;;;;;;;1.08;0.90;;;;;;;;;;4924603;29;20143;-66
2023/04/26 00:03:33;;;;;;;5.63;1.20;;;;;;;;;;4924575;29;20070;-67
2023/04/26 00:06:04;;;;;;;1.60;1.08;;;;;;;;;;4926012;29;20155;-67
2023/04/26 00:08:32;;;;;;;1.70;0.90;;;;;;;;;;4926481;29;20047;-67
2023/04/26 00:11:01;;;;;;;2.33;1.00;;;;;;;;;;4928354;29;20043;-67
2023/04/26 00:13:32;;;;;;;2.53;0.88;;;;;;;;;;4927734;29;20060;-67
2023/04/26 00:16:00;;;;;;;1.88;0.85;;;;;;;;;;4918986;29;20429;-66
2023/04/26 00:18:31;;;;;;;1.77;1.00;;;;;;;;;;4926885;29;20110;-66
2023/04/26 00:20:59;;;;;;;1.77;0.93;;;;;;;;;;4922982;29;20062;-67
2023/04/26 00:23:27;;;;;;;5.00;1.25;;;;;;;;;;4925623;29;20044;-67
2023/04/26 00:25:57;;;;;;;2.85;1.65;;;;;;;;;;4928464;28;20343;-68
2023/04/26 00:28:25;;;;;;;2.15;1.08;;;;;;;;;;4925941;29;20162;-66
2023/04/26 00:30:56;;;;;;;0.73;0.70;;;;;;;;;;4924892;29;20052;-67
2023/04/26 00:33:25;;;;;;;1.77;0.55;;;;;;;;;;4926578;29;20051;-66
2023/04/26 00:35:54;;;;;;;1.88;1.00;;;;;;;;;;4924172;28;20062;-67
2023/04/26 00:38:23;;;;;;;3.30;1.17;;;;;;;;;;4922704;29;20408;-66
2023/04/26 00:40:51;;;;;;;2.35;1.33;;;;;;;;;;4922043;29;20774;-66
2023/04/26 00:43:19;;;;;;;1.77;1.00;;;;;;;;;;4924575;29;20058;-66
2023/04/26 00:45:48;;;;;;;5.72;1.15;;;;;;;;;;4928960;28;20055;-65
2023/04/26 00:48:16;;;;;;;2.67;1.08;;;;;;;;;;4923960;29;20059;-67
2023/04/26 00:50:46;;;;;;;3.60;2.08;;;;;;;;;;4923063;29;20055;-68
2023/04/26 00:53:16;;;;;;;2.28;1.15;;;;;;;;;;4923996;29;20059;-66
2023/04/26 00:55:45;;;;;;;3.95;1.50;;;;;;;;;;4922883;28;20058;-67
2023/04/26 00:58:13;;;;;;;2.97;1.50;;;;;;;;;;4923160;29;20044;-68
2023/04/26 01:00:42;;;;;;;8.55;1.85;;;;;;;;;;4921454;29;20054;-67
2023/04/26 01:03:10;;;;;;;6.25;1.40;;;;;;;;;;4945120;23;20487;-60
2023/04/26 01:05:39;;;;;;;4.82;1.40;;;;;;;;;;4937533;29;20062;-61
2023/04/26 01:08:07;;;;;;;5.93;2.20;;;;;;;;;;4937400;29;20055;-60
2023/04/26 01:10:37;;;;;;;3.08;1.98;;;;;;;;;;4938073;29;20293;-60
2023/04/26 01:13:07;;;;;;;4.15;1.42;;;;;;;;;;4936638;29;20051;-62
2023/04/26 01:15:35;;;;;;;12.43;1.48;;;;;;;;;;4937044;29;20533;-61
2023/04/26 01:18:04;;;;;;;5.18;2.45;;;;;;;;;;4937106;29;20047;-61
2023/04/26 01:20:33;;;;;;;8.60;1.67;;;;;;;;;;4936982;29;20048;-61
2023/04/26 01:23:03;;;;;;;7.85;1.52;;;;;;;;;;4937121;29;20515;-60
2023/04/26 01:25:33;;;;;;;2.60;1.13;;;;;;;;;;4937926;29;20066;-61
2023/04/26 01:28:01;;;;;;;2.72;1.63;;;;;;;;;;4937152;29;20055;-61
2023/04/26 01:30:29;;;;;;;2.30;1.50;;;;;;;;;;4937828;29;20054;-60
2023/04/26 01:32:58;;;;;;;3.72;1.48;;;;;;;;;;4936827;29;20401;-61
2023/04/26 01:35:26;;;;;;;2.78;1.50;;;;;;;;;;4937820;29;20051;-60
2023/04/26 01:37:54;;;;;;;4.03;2.03;;;;;;;;;;4923973;29;20059;-61
2023/04/26 01:40:24;;;;;;;4.53;1.92;;;;;;;;;;4924040;29;20063;-60
2023/04/26 01:42:52;;;;;;;11.57;1.55;;;;;;;;;;4922539;29;20070;-61
2023/04/26 01:45:21;;;;;;;2.67;1.45;;;;;;;;;;4926283;28;20052;-62
2023/04/26 01:47:49;;;;;;;4.03;1.58;;;;;;;;;;4926615;29;20401;-60
2023/04/26 01:50:17;;;;;;;2.08;0.98;;;;;;;;;;4924796;29;20052;-61
2023/04/26 01:52:46;;;;;;;1.52;0.93;;;;;;;;;;4921296;29;20058;-60
2023/04/26 01:55:14;;;;;;;2.92;1.25;;;;;;;;;;4922355;28;20135;-60
2023/04/26 01:57:44;;;;;;;1.95;1.27;;;;;;;;;;4919837;29;20055;-60
2023/04/26 02:00:12;;;;;;;3.03;1.13;;;;;;;;;;4921875;29;20052;-61
2023/04/26 02:02:41;;;;;;;5.63;2.00;;;;;;;;;;4926245;29;20481;-61
2023/04/26 02:05:10;;;;;;;2.35;1.23;;;;;;;;;;4922207;29;20055;-60
2023/04/26 02:07:38;;;;;;;2.55;0.90;;;;;;;;;;4928260;29;20412;-60
2023/04/26 02:10:07;;;;;;;1.10;1.00;;;;;;;;;;4918298;29;20416;-60
2023/04/26 02:12:36;;;;;;;3.35;1.38;;;;;;;;;;4917721;29;20047;-60
2023/04/26 02:15:06;;;;;;;1.45;1.00;;;;;;;;;;4923773;29;20143;-60
2023/04/26 02:17:36;;;;;;;4.25;1.35;;;;;;;;;;4925611;29;20055;-60
2023/04/26 02:20:06;;;;;;;4.22;1.40;;;;;;;;;;4920333;29;20047;-60
2023/04/26 02:22:34;;;;;;;2.60;1.30;;;;;;;;;;4916491;28;20048;-61
2023/04/26 02:25:04;;;;;;;1.63;0.90;;;;;;;;;;4925571;29;20050;-61
2023/04/26 02:27:32;;;;;;;2.00;0.90;;;;;;;;;;4922004;29;20039;-61
2023/04/26 02:30:00;;;;;;;2.65;1.35;;;;;;;;;;4921517;29;20508;-60
2023/04/26 02:32:30;;;;;;;3.58;1.95;;;;;;;;;;4916879;29;20044;-61
2023/04/26 02:34:58;;;;;;;3.13;1.85;;;;;;;;;;4921819;29;20074;-60
2023/04/26 02:37:27;;;;;;;3.95;1.50;;;;;;;;;;4921645;28;20054;-60
2023/04/26 02:39:55;;;;;;;3.80;1.50;;;;;;;;;;4924693;29;20327;-60
2023/04/26 02:42:23;;;;;;;3.60;0.90;;;;;;;;;;4923448;29;20095;-60
2023/04/26 02:44:53;;;;;;;3.85;1.25;;;;;;;;;;4917448;29;20040;-61
2023/04/26 02:47:21;;;;;;;4.63;1.30;;;;;;;;;;4923694;28;20444;-60
2023/04/26 02:49:51;;;;;;;8.07;2.08;;;;;;;;;;4925575;29;20382;-60
2023/04/26 02:52:19;;;;;;;2.78;1.38;;;;;;;;;;4916707;29;20052;-60
2023/04/26 02:54:48;;;;;;;7.95;1.35;;;;;;;;;;4924782;29;20048;-60
2023/04/26 02:57:16;;;;;;;2.50;1.05;;;;;;;;;;4919117;29;20056;-61
2023/04/26 02:59:44;;;;;;;2.65;1.50;;;;;;;;;;4924194;29;20501;-61
2023/04/26 03:02:13;;;;;;;6.57;1.50;;;;;;;;;;4923296;28;20044;-61
2023/04/26 03:04:41;;;;;;;2.38;0.77;;;;;;;;;;4922980;29;20054;-60
2023/04/26 03:07:11;;;;;;;3.28;1.67;;;;;;;;;;4925133;28;20110;-60
2023/04/26 03:09:39;;;;;;;1.23;0.70;;;;;;;;;;4922946;29;20070;-60
2023/04/26 03:12:08;;;;;;;0.98;0.75;;;;;;;;;;4922623;29;20067;-60
2023/04/26 03:14:36;;;;;;;5.40;1.80;;;;;;;;;;4914887;29;20044;-60
2023/04/26 03:17:05;;;;;;;6.07;1.98;;;;;;;;;;4913751;29;20052;-61
2023/04/26 03:19:33;;;;;;;2.08;1.58;;;;;;;;;;4918412;29;20059;-61
2023/04/26 03:22:01;;;;;;;5.63;1.20;;;;;;;;;;4913132;29;20502;-61
2023/04/26 03:24:31;;;;;;;2.47;0.80;;;;;;;;;;4915216;29;20466;-60
2023/04/26 03:27:00;;;;;;;2.10;1.02;;;;;;;;;;4917917;28;20066;-60
2023/04/26 03:29:28;;;;;;;2.90;0.98;;;;;;;;;;4918921;29;20170;-60
2023/04/26 03:31:56;;;;;;;0.55;0.50;;;;;;;;;;4923980;29;20051;-60
2023/04/26 03:34:26;;;;;;;1.42;0.73;;;;;;;;;;4918353;29;20056;-61
2023/04/26 03:36:54;;;;;;;1.52;1.13;;;;;;;;;;4912008;29;20051;-60
2023/04/26 03:39:23;;;;;;;5.40;1.35;;;;;;;;;;4920879;29;20075;-60
2023/04/26 03:41:52;;;;;;;0.90;0.68;;;;;;;;;;4917325;29;20074;-61
2023/04/26 03:44:21;;;;;;;3.10;0.77;;;;;;;;;;4915647;29;20138;-60
2023/04/26 03:46:49;;;;;;;2.63;1.02;;;;;;;;;;4920137;29;20051;-61
2023/04/26 03:49:17;;;;;;;10.90;1.13;;;;;;;;;;4922287;29;20190;-60
2023/04/26 03:51:46;;;;;;;3.03;1.35;;;;;;;;;;4920539;29;20091;-60
2023/04/26 03:54:14;;;;;;;2.80;1.00;;;;;;;;;;4921343;29;20066;-62
2023/04/26 03:56:42;;;;;;;1.77;0.75;;;;;;;;;;4921713;28;20516;-60
2023/04/26 03:59:12;;;;;;;2.95;1.27;;;;;;;;;;4921081;29;20383;-60
2023/04/26 04:01:40;;;;;;;3.55;1.27;;;;;;;;;;4918117;29;20146;-59
2023/04/26 04:04:09;;;;;;;2.67;0.98;;;;;;;;;;4914525;29;20067;-60
2023/04/26 04:06:38;;;;;;;1.98;1.13;;;;;;;;;;4915906;28;20425;-60
2023/04/26 04:09:06;;;;;;;0.93;0.90;;;;;;;;;;4918322;29;20059;-60
2023/04/26 04:11:35;;;;;;;3.20;0.93;;;;;;;;;;4922374;29;20146;-61
2023/04/26 04:14:03;;;;;;;4.78;1.02;;;;;;;;;;4916988;29;20733;-60
2023/04/26 04:16:33;;;;;;;5.80;1.52;;;;;;;;;;4917582;28;20602;-61
2023/04/26 04:19:01;;;;;;;1.15;0.68;;;;;;;;;;4919695;29;20131;-60
2023/04/26 04:21:30;;;;;;;1.27;0.90;;;;;;;;;;4922584;29;20062;-60
2023/04/26 04:23:59;;;;;;;2.88;1.52;;;;;;;;;;4920241;29;20060;-60
2023/04/26 04:26:27;;;;;;;1.60;1.38;;;;;;;;;;4922435;28;20064;-60
2023/04/26 04:28:56;;;;;;;2.38;1.38;;;;;;;;;;4922854;29;20450;-61
2023/04/26 04:31:24;;;;;;;3.28;1.42;;;;;;;;;;4919233;29;20150;-61
2023/04/26 04:33:54;;;;;;;1.23;0.93;;;;;;;;;;4913604;29;20107;-61
2023/04/26 04:36:22;;;;;;;2.38;0.90;;;;;;;;;;4922094;28;20528;-60
2023/04/26 04:38:52;;;;;;;1.77;1.00;;;;;;;;;;4923512;29;20054;-60
2023/04/26 04:41:22;;;;;;;0.52;0.52;;;;;;;;;;4922651;29;20059;-61
2023/04/26 04:43:52;;;;;;;3.28;1.40;;;;;;;;;;4919766;29;20052;-61
2023/04/26 04:46:21;;;;;;;2.47;1.00;;;;;;;;;;4916578;29;20060;-60
2023/04/26 04:48:49;;;;;;;2.70;1.13;;;;;;;;;;4929199;29;20063;-60
2023/04/26 04:51:20;;;;;;;2.45;1.10;;;;;;;;;;4923811;29;20051;-60
2023/04/26 04:53:48;;;;;;;1.75;1.17;;;;;;;;;;4921047;29;20050;-60
2023/04/26 04:56:17;;;;;;;2.83;1.98;;;;;;;;;;4923241;28;20079;-61
2023/04/26 04:58:46;;;;;;;2.22;1.17;;;;;;;;;;4920120;29;20151;-61
2023/04/26 05:01:14;;;;;;;1.75;1.38;;;;;;;;;;4925735;29;20424;-60
2023/04/26 05:03:43;;;;;;;3.33;1.27;;;;;;;;;;4923210;29;20146;-61
2023/04/26 05:06:11;;;;;;;1.92;1.17;;;;;;;;;;4926479;28;20043;-60
2023/04/26 05:08:41;;;;;;;1.33;0.90;;;;;;;;;;4918500;29;20489;-60
2023/04/26 05:11:09;;;;;;;4.50;1.65;;;;;;;;;;4925955;29;20048;-60
2023/04/26 05:13:38;;;;;;;3.60;1.27;;;;;;;;;;4924127;29;20073;-60
2023/04/26 05:16:06;;;;;;;4.50;1.50;;;;;;;;;;4924905;28;20048;-60
2023/04/26 05:18:34;;;;;;;2.00;0.90;;;;;;;;;;4924212;29;20075;-61
2023/04/26 05:21:03;;;;;;;4.50;1.63;;;;;;;;;;4922092;29;20755;-61
2023/04/26 05:23:33;;;;;;;1.85;0.50;;;;;;;;;;4924773;29;20040;-60
2023/04/26 05:26:04;;;;;;;3.75;1.45;;;;;;;;;;4923221;28;20568;-60
2023/04/26 05:28:33;;;;;;;3.53;1.30;;;;;;;;;;4920580;29;20052;-60
2023/04/26 05:31:01;;;;;;;5.50;1.30;;;;;;;;;;4922560;29;20441;-62
2023/04/26 05:33:30;;;;;;;2.78;1.35;;;;;;;;;;4921018;29;20048;-62
2023/04/26 05:35:58;;;;;;;1.33;0.90;;;;;;;;;;4923475;28;20388;-62
2023/04/26 05:38:26;;;;;;;1.45;1.30;;;;;;;;;;4927023;29;20053;-61
2023/04/26 05:40:55;;;;;;;14.43;1.42;;;;;;;;;;4918835;29;20051;-61
2023/04/26 05:43:25;;;;;;;3.85;1.95;;;;;;;;;;4926356;29;20075;-60
2023/04/26 05:45:53;;;;;;;4.93;1.90;;;;;;;;;;4928294;28;20185;-61
2023/04/26 05:48:22;;;;;;;4.78;1.35;;;;;;;;;;4921056;29;20040;-60
2023/04/26 05:50:51;;;;;;;2.10;1.27;;;;;;;;;;4921671;29;20460;-60
2023/04/26 05:53:19;;;;;;;3.58;2.08;;;;;;;;;;4923414;29;20067;-62
2023/04/26 05:55:48;;;;;;;1.42;0.68;;;;;;;;;;4925409;29;20047;-62
2023/04/26 05:58:16;;;;;;;2.67;1.25;;;;;;;;;;4920495;29;20047;-62
2023/04/26 06:00:46;;;;;;;2.40;1.30;;;;;;;;;;4923973;29;20051;-61
2023/04/26 06:03:15;;;;;;;1.48;1.38;;;;;;;;;;4924188;29;20056;-61
2023/04/26 06:05:44;;;;;;;3.17;1.92;;;;;;;;;;4918626;29;20111;-62
2023/04/26 06:08:12;;;;;;;8.27;1.50;;;;;;;;;;4917204;29;20052;-61
2023/04/26 06:10:40;;;;;;;8.20;1.67;;;;;;;;;;4922998;29;20068;-61
2023/04/26 06:13:09;;;;;;;2.47;1.23;;;;;;;;;;4926895;29;20048;-60
2023/04/26 06:15:37;;;;;;;3.53;1.92;;;;;;;;;;4913791;29;20084;-61
2023/04/26 06:18:07;;;;;;;6.80;1.50;;;;;;;;;;4917913;29;20157;-61
2023/04/26 06:20:35;;;;;;;1.58;1.25;;;;;;;;;;4924357;29;20058;-61
2023/04/26 06:23:04;;;;;;;2.58;1.45;;;;;;;;;;4921314;29;20048;-61
2023/04/26 06:25:33;;;;;;;1.38;1.23;;;;;;;;;;4920653;28;20048;-61
2023/04/26 06:28:02;;;;;;;4.25;1.67;;;;;;;;;;4920194;29;20052;-61
2023/04/26 06:30:31;;;;;;;5.93;1.25;;;;;;;;;;4927095;29;20060;-61
2023/04/26 06:32:59;;;;;;;2.47;1.73;;;;;;;;;;4921300;29;20069;-63
2023/04/26 06:35:30;;;;;;;2.35;1.05;;;;;;;;;;4923694;28;20055;-60
2023/04/26 06:37:58;;;;;;;1.08;0.98;;;;;;;;;;4926930;29;20051;-60
2023/04/26 06:40:26;;;;;;;2.30;1.17;;;;;;;;;;4920066;29;20048;-62
2023/04/26 06:42:56;;;;;;;2.83;1.42;;;;;;;;;;4916943;29;20060;-61
2023/04/26 06:45:24;;;;;;;3.58;1.50;;;;;;;;;;4921066;28;20066;-60
2023/04/26 06:47:52;;;;;;;3.58;1.25;;;;;;;;;;4919836;29;20445;-58
2023/04/26 06:50:21;;;;;;;6.28;1.75;;;;;;;;;;4920778;29;20568;-58
2023/04/26 06:52:51;;;;;;;3.38;1.77;;;;;;;;;;4921697;29;20067;-59
2023/04/26 06:55:19;;;;;;;2.70;1.98;;;;;;;;;;4921287;28;20134;-58
2023/04/26 06:57:48;;;;;;;5.82;1.48;;;;;;;;;;4923340;29;20146;-58
2023/04/26 07:00:17;;;;;;;9.35;2.17;;;;;;;;;;4922352;29;20788;-58
2023/04/26 07:02:46;;;;;;;2.35;1.33;;;;;;;;;;4926077;29;20074;-58
2023/04/26 07:05:15;;;;;;;3.53;1.35;;;;;;;;;;4923539;28;20508;-61
2023/04/26 07:07:43;;;;;;;2.53;1.48;;;;;;;;;;4927287;29;20095;-59
2023/04/26 07:10:13;;;;;;;2.42;1.33;;;;;;;;;;4914120;29;20142;-58
2023/04/26 07:12:42;;;;;;;3.53;1.42;;;;;;;;;;4924957;29;20193;-57
2023/04/26 07:15:10;;;;;;;3.10;1.60;;;;;;;;;;4917857;28;20142;-59
2023/04/26 07:17:39;;;;;;;3.42;1.48;;;;;;;;;;4923915;29;20561;-58
2023/04/26 07:20:09;;;;;;;5.07;1.85;;;;;;;;;;4922344;29;20052;-59
2023/04/26 07:22:37;;;;;;;1.77;1.08;;;;;;;;;;4924345;29;20405;-61
2023/04/26 07:25:06;;;;;;;4.85;1.63;;;;;;;;;;4919850;29;20047;-57
2023/04/26 07:27:36;;;;;;;2.97;1.58;;;;;;;;;;4922590;28;20959;-60
2023/04/26 07:30:04;;;;;;;2.78;1.63;;;;;;;;;;4915595;29;20364;-58
2023/04/26 07:32:33;;;;;;;2.35;1.58;;;;;;;;;;4924523;29;20051;-58
2023/04/26 07:35:01;;;;;;;5.78;1.67;;;;;;;;;;4921352;29;20533;-62
2023/04/26 07:37:29;;;;;;;2.58;1.75;;;;;;;;;;4921716;28;20051;-58
2023/04/26 07:39:58;;;;;;;5.57;2.28;;;;;;;;;;4926123;29;20048;-58
2023/04/26 07:42:27;;;;;;;3.17;1.92;;;;;;;;;;4922014;29;20075;-58
2023/04/26 07:44:56;;;;;;;4.53;2.10;;;;;;;;;;4922068;29;20357;-60
2023/04/26 07:47:25;;;;;;;3.92;2.28;;;;;;;;;;4924351;29;20610;-59
2023/04/26 07:49:54;;;;;;;3.80;1.45;;;;;;;;;;4919490;29;20055;-59
2023/04/26 07:52:22;;;;;;;1.55;1.20;;;;;;;;;;4924822;29;20593;-58
2023/04/26 07:54:51;;;;;;;7.63;2.38;;;;;;;;;;4921301;29;20521;-62
2023/04/26 07:57:19;;;;;;;4.00;1.90;;;;;;;;;;4924002;29;20075;-63
2023/04/26 07:59:48;;;;;;;3.75;1.65;;;;;;;;;;4919320;29;20062;-58
2023/04/26 08:02:17;;;;;;;4.22;1.85;;;;;;;;;;4921570;29;20070;-58
2023/04/26 08:04:53;;;;;;;6.22;1.95;;;;;;;;;;4912234;29;20752;-58
2023/04/26 08:07:22;;;;;;;3.50;1.52;;;;;;;;;;4920280;28;20186;-60
2023/04/26 08:09:51;;;;;;;4.32;1.60;;;;;;;;;;4919952;29;20584;-58
2023/04/26 08:12:19;;;;;;;4.78;2.17;;;;;;;;;;4913504;29;20353;-58
2023/04/26 08:14:48;;;;;;;9.40;1.90;;;;;;;;;;4922560;29;20051;-58
2023/04/26 08:17:18;;;;;;;4.97;1.70;;;;;;;;;;4916691;29;20040;-59
2023/04/26 08:19:46;;;;;;;1.83;1.08;;;;;;;;;;4923242;29;20075;-58
2023/04/26 08:22:15;;;;;;;3.83;1.20;;;;;;;;;;4927778;29;20552;-62
2023/04/26 08:24:48;;;;;;;4.78;1.75;;;;;;;;;;4923345;29;20062;-59
2023/04/26 08:27:16;;;;;;;4.53;2.40;;;;;;;;;;4926655;28;20054;-58
2023/04/26 08:29:44;;;;;;;6.85;2.33;;;;;;;;;;4930653;29;20477;-59
2023/04/26 08:32:13;;;;;;;2.78;1.45;;;;;;;;;;4924313;29;20056;-61
2023/04/26 08:34:42;;;;;;;3.00;1.45;;;;;;;;;;4925761;29;20686;-61
2023/04/26 08:37:11;;;;;;;2.22;1.73;;;;;;;;;;4921754;28;20052;-58
2023/04/26 08:39:40;;;;;;;2.03;1.63;;;;;;;;;;4924874;29;20150;-57
2023/04/26 08:42:13;;;;;;;5.90;1.77;;;;;;;;;;4924752;29;20094;-58
2023/04/26 08:44:42;;;;;;;2.20;1.45;;;;;;;;;;4930996;29;20059;-59
2023/04/26 08:47:14;;;;;;;1.33;0.88;;;;;;;;;;4929148;28;20553;-59
2023/04/26 08:49:46;;;;;;;3.70;1.48;;;;;;;;;;4929472;29;20039;-58
2023/04/26 08:52:15;;;;;;;3.03;1.02;;;;;;;;;;4927001;29;20051;-58
2023/04/26 08:54:45;;;;;;;4.22;1.33;;;;;;;;;;4924777;29;20047;-62
2023/04/26 08:57:13;;;;;;;2.80;1.42;;;;;;;;;;4922957;28;20048;-58
2023/04/26 08:59:43;;;;;;;10.05;1.33;;;;;;;;;;4926066;29;20052;-61
2023/04/26 09:02:14;;;;;;;3.33;0.88;;;;;;;;;;4923210;29;20065;-59
2023/04/26 09:04:44;;;;;;;4.13;2.13;;;;;;;;;;4923368;29;20068;-60
2023/04/26 09:07:16;;;;;;;4.45;1.63;;;;;;;;;;4922922;28;20067;-58
2023/04/26 09:09:46;;;;;;;3.38;1.10;;;;;;;;;;4922694;29;20056;-59
2023/04/26 09:12:15;;;;;;;2.13;1.27;;;;;;;;;;4915812;29;20060;-59
2023/04/26 09:14:43;;;;;;;4.00;1.33;;;;;;;;;;4920537;29;20048;-58
2023/04/26 09:17:25;;;;;;;1.63;0.95;;;;;;;;;;4924351;28;20044;-58
2023/04/26 09:19:55;;;;;;;5.95;1.45;;;;;;;;;;4924344;29;20055;-61
2023/04/26 09:22:34;;;;;;;1.25;1.15;;;;;;;;;;4918104;29;20039;-58
2023/04/26 09:25:03;;;;;;;11.38;1.20;;;;;;;;;;4922560;29;20059;-59
2023/04/26 09:27:32;;;;;;;2.40;1.45;;;;;;;;;;4922729;29;20052;-58
2023/04/26 09:30:04;;;;;;;2.75;1.17;;;;;;;;;;4926186;29;20051;-58
2023/04/26 09:32:50;;;;;;;1.30;1.00;;;;;;;;;;4925774;29;20056;-60
2023/04/26 09:35:23;;;;;;;1.73;1.20;;;;;;;;;;4919674;29;20048;-58
2023/04/26 09:37:52;;;;;;;3.50;1.42;;;;;;;;;;4923015;29;20047;-59
2023/04/26 09:40:27;;;;;;;1.90;0.85;;;;;;;;;;4926324;29;20134;-58
2023/04/26 09:43:02;;;;;;;1.48;0.90;;;;;;;;;;4922236;29;20458;-59
2023/04/26 09:45:31;;;;;;;1.15;0.70;;;;;;;;;;4921892;29;20048;-58
2023/04/26 09:48:20;;;;;;;3.38;1.00;;;;;;;;;;4923894;29;20064;-58
2023/04/26 09:50:52;;;;;;;0.70;0.70;;;;;;;;;;4926193;29;20062;-60
2023/04/26 09:53:27;;;;;;;2.05;0.98;;;;;;;;;;4924233;29;20071;-59
2023/04/26 09:55:56;;;;;;;1.17;0.63;;;;;;;;;;4928099;28;20047;-59
2023/04/26 09:58:24;;;;;;;1.92;0.88;;;;;;;;;;4925996;29;20058;-62
2023/04/26 10:00:53;;;;;;;1.13;0.82;;;;;;;;;;4922167;29;20686;-58
2023/04/26 10:03:23;;;;;;;1.63;0.80;;;;;;;;;;4924841;29;20142;-58
2023/04/26 10:05:53;;;;;;;2.58;0.90;;;;;;;;;;4921540;29;20424;-59
2023/04/26 10:08:22;;;;;;;1.83;0.90;;;;;;;;;;4921896;29;20054;-62
2023/04/26 10:10:51;;;;;;;2.67;1.00;;;;;;;;;;4926106;29;20056;-62
2023/04/26 10:13:19;;;;;;;1.27;0.82;;;;;;;;;;4926975;29;20060;-60
2023/04/26 10:15:48;;;;;;;1.83;1.25;;;;;;;;;;4923863;28;20052;-61
2023/04/26 10:18:17;;;;;;;3.00;1.55;;;;;;;;;;4922430;29;20399;-58
2023/04/26 10:20:47;;;;;;;1.08;0.75;;;;;;;;;;4922836;29;20071;-58
2023/04/26 10:23:20;;;;;;;2.42;1.10;;;;;;;;;;4922269;29;20497;-58
2023/04/26 10:25:48;;;;;;;2.92;0.80;;;;;;;;;;4918528;29;20060;-58
2023/04/26 10:28:18;;;;;;;1.02;0.77;;;;;;;;;;4926233;29;20134;-59
2023/04/26 10:30:56;;;;;;;1.30;0.85;;;;;;;;;;4925168;29;20442;-61
2023/04/26 10:33:25;;;;;;;3.08;0.85;;;;;;;;;;4923270;29;20055;-58
2023/04/26 10:36:03;;;;;;;3.20;1.20;;;;;;;;;;4921709;28;20052;-58
2023/04/26 10:38:33;;;;;;;2.10;0.70;;;;;;;;;;4923885;29;20050;-59
2023/04/26 10:41:20;;;;;;;2.40;1.33;;;;;;;;;;4924054;29;20051;-59
2023/04/26 10:43:49;;;;;;;2.40;0.93;;;;;;;;;;4923920;29;20056;-60
2023/04/26 10:46:35;;;;;;;2.45;1.13;;;;;;;;;;4920930;29;20052;-62
2023/04/26 10:49:14;;;;;;;1.92;0.90;;;;;;;;;;4923847;29;20524;-62
2023/04/26 10:51:58;;;;;;;3.80;0.88;;;;;;;;;;4924924;29;20055;-59
2023/04/26 10:54:45;;;;;;;2.42;0.90;;;;;;;;;;4925010;29;20131;-62
2023/04/26 10:57:13;;;;;;;2.75;1.17;;;;;;;;;;4919686;28;20058;-58
2023/04/26 10:59:41;;;;;;;1.13;0.55;;;;;;;;;;4919502;29;20044;-58
2023/04/26 11:02:36;;;;;;;0.93;0.80;;;;;;;;;;4918880;29;20074;-61
2023/04/26 11:05:06;;;;;;;1.25;0.68;;;;;;;;;;4922088;29;20066;-59
2023/04/26 11:07:37;;;;;;;1.02;0.60;;;;;;;;;;4914571;29;20083;-59
2023/04/26 11:10:10;;;;;;;1.63;0.80;;;;;;;;;;4918123;29;20072;-63
2023/04/26 11:12:42;;;;;;;1.02;0.70;;;;;;;;;;4917706;29;20047;-59
2023/04/26 11:15:13;;;;;;;6.28;0.77;;;;;;;;;;4917229;28;20055;-59
2023/04/26 11:17:41;;;;;;;1.48;1.00;;;;;;;;;;4919865;29;20138;-59
2023/04/26 11:20:10;;;;;;;0.80;0.60;;;;;;;;;;4922423;29;20047;-59
2023/04/26 11:22:40;;;;;;;1.98;0.88;;;;;;;;;;4917119;29;20051;-60
2023/04/26 11:25:13;;;;;;;1.63;0.73;;;;;;;;;;4919520;29;20138;-59
2023/04/26 11:27:43;;;;;;;4.50;1.25;;;;;;;;;;4918757;29;20062;-58
2023/04/26 11:30:12;;;;;;;2.65;0.93;;;;;;;;;;4922519;29;20059;-58
2023/04/26 11:32:41;;;;;;;2.05;1.10;;;;;;;;;;4919808;29;20059;-61
2023/04/26 11:35:10;;;;;;;1.70;1.00;;;;;;;;;;4924882;29;20056;-59
2023/04/26 11:37:38;;;;;;;1.83;0.80;;;;;;;;;;4922185;29;20066;-58
2023/04/26 11:40:08;;;;;;;7.38;1.20;;;;;;;;;;4920601;29;20048;-58
2023/04/26 11:42:38;;;;;;;5.88;0.95;;;;;;;;;;4921410;29;20134;-58
2023/04/26 11:45:07;;;;;;;5.38;1.77;;;;;;;;;;4922598;29;20043;-61
2023/04/26 11:47:36;;;;;;;2.30;1.10;;;;;;;;;;4920751;29;20048;-60
2023/04/26 11:50:04;;;;;;;2.00;0.90;;;;;;;;;;4924417;29;20159;-58
2023/04/26 11:52:33;;;;;;;3.42;1.05;;;;;;;;;;4920773;29;20051;-63
2023/04/26 11:55:05;;;;;;;3.50;0.82;;;;;;;;;;4918810;29;20063;-60
2023/04/26 11:57:33;;;;;;;2.38;0.82;;;;;;;;;;4923904;28;20154;-59
2023/04/26 12:00:13;;;;;;;2.55;0.98;;;;;;;;;;4929240;29;20054;-58
2023/04/26 12:02:45;;;;;;;2.00;1.15;;;;;;;;;;4931175;29;20059;-58
2023/04/26 12:05:21;;;;;;;7.63;1.88;;;;;;;;;;4925932;28;20054;-58
2023/04/26 12:07:54;;;;;;;2.13;0.88;;;;;;;;;;4929800;29;20170;-61
2023/04/26 12:10:25;;;;;;;1.30;0.95;;;;;;;;;;4926689;29;20062;-59
2023/04/26 12:12:55;;;;;;;0.90;0.45;;;;;;;;;;4929138;29;20070;-58
2023/04/26 12:15:25;;;;;;;1.83;0.80;;;;;;;;;;4924620;28;20047;-62
2023/04/26 12:17:54;;;;;;;2.00;0.88;;;;;;;;;;4928470;29;20048;-58
2023/04/26 12:20:30;;;;;;;6.22;1.35;;;;;;;;;;4922837;29;20071;-61
2023/04/26 12:23:02;;;;;;;1.45;0.73;;;;;;;;;;4924703;29;20281;-59
2023/04/26 12:25:30;;;;;;;2.40;1.63;;;;;;;;;;4930153;28;20365;-59
2023/04/26 12:27:58;;;;;;;1.45;1.00;;;;;;;;;;4922855;29;20066;-59
2023/04/26 12:30:29;;;;;;;4.22;0.93;;;;;;;;;;4928293;29;20047;-61
2023/04/26 12:32:57;;;;;;;1.05;0.80;;;;;;;;;;4922251;29;20048;-58
2023/04/26 12:35:42;;;;;;;5.82;1.50;;;;;;;;;;4920061;29;20126;-59
2023/04/26 12:38:11;;;;;;;4.40;0.93;;;;;;;;;;4920587;29;20055;-58
2023/04/26 12:40:40;;;;;;;1.35;0.80;;;;;;;;;;4922401;29;20147;-60
2023/04/26 12:43:09;;;;;;;1.45;0.75;;;;;;;;;;4922092;29;20055;-64
2023/04/26 12:45:39;;;;;;;0.80;0.80;;;;;;;;;;4921152;28;20044;-59
2023/04/26 12:48:07;;;;;;;0.82;0.60;;;;;;;;;;4925483;29;20119;-59
2023/04/26 12:50:36;;;;;;;1.58;0.90;;;;;;;;;;4926707;29;20505;-61
2023/04/26 12:53:04;;;;;;;1.20;0.73;;;;;;;;;;4926283;29;20044;-58
2023/04/26 12:55:32;;;;;;;2.03;0.82;;;;;;;;;;4922136;29;20074;-59
2023/04/26 12:58:01;;;;;;;1.45;0.70;;;;;;;;;;4919706;29;20085;-58
2023/04/26 13:00:30;;;;;;;1.08;0.75;;;;;;;;;;4922599;29;20047;-57
2023/04/26 13:03:00;;;;;;;2.67;1.77;;;;;;;;;;4927441;29;20378;-60
2023/04/26 13:05:28;;;;;;;2.05;0.85;;;;;;;;;;4923763;28;20059;-58
2023/04/26 13:07:59;;;;;;;0.68;0.68;;;;;;;;;;4922836;29;20527;-60
2023/04/26 13:10:27;;;;;;;1.20;0.82;;;;;;;;;;4920529;29;20075;-58
2023/04/26 13:12:57;;;;;;;0.88;0.43;;;;;;;;;;4922898;29;20587;-58
2023/04/26 13:15:25;;;;;;;4.03;0.85;;;;;;;;;;4917942;28;20052;-58
2023/04/26 13:17:54;;;;;;;1.35;0.90;;;;;;;;;;4920640;29;20048;-57
2023/04/26 13:20:23;;;;;;;2.08;1.20;;;;;;;;;;4925240;29;20505;-60
2023/04/26 13:22:54;;;;;;;1.77;0.98;;;;;;;;;;4926139;29;20500;-59
2023/04/26 13:25:23;;;;;;;2.20;0.98;;;;;;;;;;4921869;28;20540;-57
2023/04/26 13:27:53;;;;;;;2.25;1.35;;;;;;;;;;4924004;29;20051;-57
2023/04/26 13:30:21;;;;;;;1.83;0.55;;;;;;;;;;4926573;29;20048;-57
2023/04/26 13:32:50;;;;;;;0.85;0.60;;;;;;;;;;4925773;29;20053;-58
2023/04/26 13:35:18;;;;;;;5.80;0.90;;;;;;;;;;4923458;29;20060;-57
2023/04/26 13:37:48;;;;;;;1.55;0.90;;;;;;;;;;4920093;29;20055;-56
2023/04/26 13:40:17;;;;;;;2.30;0.85;;;;;;;;;;4925093;29;20048;-58
2023/04/26 13:42:45;;;;;;;3.03;1.08;;;;;;;;;;4921855;29;20131;-59
2023/04/26 13:45:14;;;;;;;2.90;0.80;;;;;;;;;;4925054;29;20052;-58
2023/04/26 13:47:45;;;;;;;1.15;0.85;;;;;;;;;;4920405;29;20052;-60
2023/04/26 13:50:13;;;;;;;0.40;0.40;;;;;;;;;;4929311;29;20054;-56
2023/04/26 13:52:42;;;;;;;2.20;0.65;;;;;;;;;;4927590;29;20055;-60
2023/04/26 13:55:13;;;;;;;0.50;0.50;;;;;;;;;;4921539;28;20115;-57
2023/04/26 13:57:41;;;;;;;4.10;0.80;;;;;;;;;;4922824;29;20136;-62
2023/04/26 14:00:10;;;;;;;3.63;0.85;;;;;;;;;;4926197;29;20040;-61
2023/04/26 14:02:39;;;;;;;1.98;1.00;;;;;;;;;;4925084;29;20061;-58
2023/04/26 14:05:08;;;;;;;2.85;0.93;;;;;;;;;;4920313;29;20070;-57
2023/04/26 14:07:37;;;;;;;2.55;0.70;;;;;;;;;;4922580;28;20474;-58
2023/04/26 14:10:05;;;;;;;6.82;0.90;;;;;;;;;;4926395;29;20142;-58
2023/04/26 14:12:35;;;;;;;0.93;0.70;;;;;;;;;;4918303;29;20103;-57
2023/04/26 14:15:05;;;;;;;2.05;1.00;;;;;;;;;;4911215;29;20059;-57
2023/04/26 14:17:33;;;;;;;1.27;0.85;;;;;;;;;;4921224;29;20079;-57
2023/04/26 14:20:01;;;;;;;3.28;1.05;;;;;;;;;;4923543;28;20564;-57
2023/04/26 14:22:31;;;;;;;0.52;0.52;;;;;;;;;;4923851;29;20682;-58
2023/04/26 14:24:59;;;;;;;1.95;0.85;;;;;;;;;;4926571;28;20139;-59
2023/04/26 14:27:28;;;;;;;4.72;0.80;;;;;;;;;;4921280;28;20424;-57
2023/04/26 14:29:57;;;;;;;1.45;0.70;;;;;;;;;;4922342;29;20043;-61
2023/04/26 14:32:26;;;;;;;1.77;0.80;;;;;;;;;;4925853;29;20116;-58
2023/04/26 14:34:54;;;;;;;1.50;0.73;;;;;;;;;;4921190;29;20722;-58
2023/04/26 14:37:22;;;;;;;3.85;1.25;;;;;;;;;;4916089;29;20532;-57
2023/04/26 14:39:51;;;;;;;5.28;0.88;;;;;;;;;;4921822;29;20056;-57
2023/04/26 14:42:19;;;;;;;2.40;0.70;;;;;;;;;;4923410;29;20051;-57
2023/04/26 14:44:48;;;;;;;0.80;0.80;;;;;;;;;;4924516;29;20051;-58
2023/04/26 14:47:18;;;;;;;2.20;0.73;;;;;;;;;;4924401;28;20130;-58
2023/04/26 14:49:46;;;;;;;1.00;0.63;;;;;;;;;;4926345;29;20056;-57
2023/04/26 14:52:15;;;;;;;1.00;0.70;;;;;;;;;;4917050;29;20344;-58
2023/04/26 14:54:43;;;;;;;4.10;0.77;;;;;;;;;;4921936;29;20061;-57
2023/04/26 14:57:12;;;;;;;2.95;0.90;;;;;;;;;;4921262;28;21874;-57